createdAt,value
2022-11-23T00:00:44.640Z,1.85
2022-11-23T00:03:15.642Z,2.25
2022-11-23T00:05:43.465Z,2.13
2022-11-23T00:08:12.546Z,1.83
2022-11-23T00:10:40.311Z,1.80
2022-11-23T00:13:08.104Z,2.05
2022-11-23T00:15:35.954Z,1.73
2022-11-23T00:18:03.740Z,1.50
2022-11-23T00:20:31.504Z,1.98
2022-11-23T00:22:59.221Z,2.75
2022-11-23T00:25:28.317Z,1.90
2022-11-23T00:27:56.103Z,2.13
2022-11-23T00:30:23.869Z,1.35
2022-11-23T00:32:51.587Z,2.35
2022-11-23T00:35:19.364Z,1.80
2022-11-23T00:37:47.118Z,2.03
2022-11-23T00:40:15.127Z,2.70
2022-11-23T00:42:44.211Z,2.17
2022-11-23T00:45:12.126Z,2.55
2022-11-23T00:47:39.866Z,1.90
2022-11-23T00:50:07.995Z,1.40
2022-11-23T00:52:35.780Z,1.98
2022-11-23T00:55:03.585Z,2.72
2022-11-23T00:57:31.345Z,2.47
2022-11-23T01:00:00.487Z,2.28
2022-11-23T01:02:28.284Z,1.88
2022-11-23T01:04:56.087Z,1.83
2022-11-23T01:07:23.897Z,1.80
2022-11-23T01:09:51.701Z,2.10
2022-11-23T01:12:19.441Z,1.45
2022-11-23T01:14:47.177Z,1.75
2022-11-23T01:17:16.250Z,1.85
2022-11-23T01:19:43.977Z,1.75
2022-11-23T01:22:11.812Z,2.10
2022-11-23T01:24:39.588Z,1.58
2022-11-23T01:27:07.435Z,1.95
2022-11-23T01:29:35.292Z,1.60
2022-11-23T01:32:03.117Z,1.60
2022-11-23T01:34:32.200Z,1.50
2022-11-23T01:37:00.282Z,1.73
2022-11-23T01:39:28.188Z,1.58
2022-11-23T01:41:56.123Z,1.50
2022-11-23T01:44:27.026Z,1.80
2022-11-23T01:46:56.186Z,1.35
2022-11-23T01:49:24.974Z,1.42
2022-11-23T01:51:56.973Z,2.08
2022-11-23T01:54:29.094Z,1.63
2022-11-23T01:57:02.644Z,1.88
2022-11-23T01:59:34.364Z,1.70
2022-11-23T02:02:02.663Z,1.77
2022-11-23T02:04:34.566Z,1.50
2022-11-23T02:07:05.518Z,2.00
2022-11-23T02:09:35.814Z,1.60
2022-11-23T02:12:03.698Z,1.52
2022-11-23T02:14:31.511Z,1.15
2022-11-23T02:17:00.147Z,1.50
2022-11-23T02:19:34.999Z,1.30
2022-11-23T02:22:07.031Z,1.42
2022-11-23T02:24:39.957Z,1.55
2022-11-23T02:27:09.091Z,1.60
2022-11-23T02:29:36.967Z,1.30
2022-11-23T02:32:05.095Z,1.63
2022-11-23T02:34:32.833Z,1.60
2022-11-23T02:37:00.681Z,1.40
2022-11-23T02:39:32.709Z,1.30
2022-11-23T02:42:01.278Z,1.85
2022-11-23T02:44:37.177Z,1.25
2022-11-23T02:47:05.761Z,1.50
2022-11-23T02:49:33.849Z,1.38
2022-11-23T02:52:02.595Z,1.52
2022-11-23T02:54:30.640Z,1.55
2022-11-23T02:56:58.434Z,1.35
2022-11-23T02:59:26.261Z,0.90
2022-11-23T03:01:55.365Z,2.00
2022-11-23T03:04:27.608Z,1.33
2022-11-23T03:06:55.922Z,1.25
2022-11-23T03:09:23.765Z,1.70
2022-11-23T03:11:51.558Z,1.88
2022-11-23T03:14:19.354Z,1.20
2022-11-23T03:16:47.130Z,1.20
2022-11-23T03:19:16.503Z,1.75
2022-11-23T03:21:44.294Z,1.95
2022-11-23T03:24:12.036Z,1.30
2022-11-23T03:26:39.759Z,1.13
2022-11-23T03:29:07.556Z,1.17
2022-11-23T03:31:35.409Z,1.27
2022-11-23T03:34:03.170Z,1.83
2022-11-23T03:36:32.320Z,1.23
2022-11-23T03:39:00.084Z,1.05
2022-11-23T03:41:27.921Z,1.00
2022-11-23T03:43:55.671Z,1.30
2022-11-23T03:46:23.439Z,1.52
2022-11-23T03:48:51.181Z,1.23
2022-11-23T03:51:19.038Z,1.08
2022-11-23T03:53:48.352Z,1.10
2022-11-23T03:56:16.497Z,1.35
2022-11-23T03:58:44.243Z,0.95
2022-11-23T04:01:12.194Z,1.52
2022-11-23T04:03:40.061Z,2.13
2022-11-23T04:06:07.859Z,1.58
2022-11-23T04:08:35.635Z,0.65
2022-11-23T04:11:04.918Z,0.93
2022-11-23T04:13:32.756Z,1.23
2022-11-23T04:16:00.557Z,0.90
2022-11-23T04:18:28.387Z,1.02
2022-11-23T04:20:56.166Z,1.05
2022-11-23T04:23:23.897Z,1.20
2022-11-23T04:25:51.716Z,1.40
2022-11-23T04:28:20.786Z,0.77
2022-11-23T04:30:48.538Z,1.77
2022-11-23T04:33:16.690Z,1.88
2022-11-23T04:35:44.544Z,1.60
2022-11-23T04:38:12.564Z,1.30
2022-11-23T04:40:40.314Z,1.10
2022-11-23T04:43:09.436Z,1.33
2022-11-23T04:45:40.604Z,1.00
2022-11-23T04:48:08.629Z,1.33
2022-11-23T04:50:40.403Z,1.52
2022-11-23T04:53:08.679Z,0.90
2022-11-23T04:55:36.723Z,0.88
2022-11-23T04:58:04.570Z,0.90
2022-11-23T05:00:32.585Z,0.90
2022-11-23T05:03:02.239Z,1.13
2022-11-23T05:05:30.054Z,1.00
2022-11-23T05:07:59.034Z,0.93
2022-11-23T05:10:27.019Z,2.08
2022-11-23T05:12:54.765Z,1.10
2022-11-23T05:15:22.598Z,1.13
2022-11-23T05:17:51.591Z,1.50
2022-11-23T05:20:23.295Z,0.75
2022-11-23T05:22:51.096Z,1.25
2022-11-23T05:25:19.253Z,1.10
2022-11-23T05:27:47.089Z,1.83
2022-11-23T05:30:15.794Z,1.60
2022-11-23T05:32:43.654Z,0.80
2022-11-23T05:35:12.017Z,1.30
2022-11-23T05:37:41.821Z,1.20
2022-11-23T05:40:11.831Z,1.13
2022-11-23T05:42:39.653Z,0.90
2022-11-23T05:45:11.535Z,0.95
2022-11-23T05:47:39.997Z,0.90
2022-11-23T05:50:09.094Z,1.05
2022-11-23T05:52:36.895Z,1.98
2022-11-23T05:55:06.354Z,1.40
2022-11-23T05:57:34.123Z,1.10
2022-11-23T06:00:01.882Z,1.15
2022-11-23T06:02:30.049Z,1.13
2022-11-23T06:04:57.827Z,1.58
2022-11-23T06:07:25.664Z,2.22
2022-11-23T06:09:53.442Z,1.25
2022-11-23T06:12:22.621Z,1.00
2022-11-23T06:14:50.434Z,1.30
2022-11-23T06:17:18.254Z,1.33
2022-11-23T06:19:46.033Z,1.73
2022-11-23T06:22:15.227Z,1.55
2022-11-23T06:24:43.161Z,1.23
2022-11-23T06:27:16.603Z,1.10
2022-11-23T06:29:47.112Z,1.20
2022-11-23T06:32:15.766Z,1.42
2022-11-23T06:34:43.549Z,1.50
2022-11-23T06:37:12.034Z,1.98
2022-11-23T06:39:40.057Z,1.90
2022-11-23T06:42:31.388Z,1.48
2022-11-23T06:44:57.046Z,1.33
2022-11-23T06:47:26.522Z,1.50
2022-11-23T06:49:54.551Z,1.15
2022-11-23T06:52:22.332Z,2.22
2022-11-23T06:54:50.206Z,1.58
2022-11-23T06:57:17.999Z,1.33
2022-11-23T06:59:46.197Z,1.23
2022-11-23T07:02:15.534Z,1.30
2022-11-23T07:04:43.277Z,1.58
2022-11-23T07:07:11.132Z,1.10
2022-11-23T07:09:39.080Z,2.10
2022-11-23T07:12:07.531Z,1.70
2022-11-23T07:14:35.404Z,1.58
2022-11-23T07:17:03.386Z,1.48
2022-11-23T07:19:33.075Z,1.40
2022-11-23T07:22:01.030Z,1.52
2022-11-23T07:24:32.842Z,1.60
2022-11-23T07:27:04.424Z,2.00
2022-11-23T07:29:32.435Z,1.23
2022-11-23T07:32:00.409Z,1.23
2022-11-23T07:34:29.166Z,1.35
2022-11-23T07:37:02.010Z,1.52
2022-11-23T07:39:55.056Z,1.70
2022-11-23T07:42:32.378Z,2.03
2022-11-23T07:45:02.760Z,1.65
2022-11-23T07:47:30.533Z,2.03
2022-11-23T07:49:58.468Z,3.22
2022-11-23T07:52:27.565Z,2.20
2022-11-23T07:54:55.435Z,2.00
2022-11-23T07:57:23.295Z,1.60
2022-11-23T07:59:51.107Z,5.63
2022-11-23T08:02:18.872Z,3.10
2022-11-23T08:04:46.672Z,7.10
2022-11-23T08:07:14.585Z,7.63
2022-11-23T08:09:43.968Z,6.93
2022-11-23T08:12:11.769Z,7.50
2022-11-23T08:14:39.565Z,3.75
2022-11-23T08:17:07.358Z,2.30
2022-11-23T08:19:35.207Z,5.72
2022-11-23T08:22:02.983Z,3.30
2022-11-23T08:24:31.052Z,2.83
2022-11-23T08:27:00.363Z,4.03
2022-11-23T08:29:28.812Z,3.38
2022-11-23T08:31:56.555Z,2.80
2022-11-23T08:34:24.366Z,2.90
2022-11-23T08:36:52.186Z,3.20
2022-11-23T08:39:20.440Z,3.58
2022-11-23T08:41:48.264Z,3.63
2022-11-23T08:44:17.442Z,4.32
2022-11-23T08:46:45.198Z,4.95
2022-11-23T08:49:13.027Z,4.68
2022-11-23T08:51:43.402Z,6.00
2022-11-23T08:54:13.425Z,3.88
2022-11-23T08:56:41.245Z,2.90
2022-11-23T08:59:09.733Z,3.53
2022-11-23T09:01:41.175Z,3.15
2022-11-23T09:04:13.958Z,2.10
2022-11-23T09:06:46.152Z,2.40
2022-11-23T09:09:16.062Z,2.85
2022-11-23T09:11:45.738Z,2.58
2022-11-23T09:14:16.326Z,1.90
2022-11-23T09:16:47.343Z,2.05
2022-11-23T09:19:17.241Z,1.83
2022-11-23T09:21:46.896Z,1.73
2022-11-23T09:24:17.061Z,1.98
2022-11-23T09:26:46.742Z,1.30
2022-11-23T09:29:16.560Z,1.45
2022-11-23T09:31:48.032Z,1.40
2022-11-23T09:34:17.763Z,2.03
2022-11-23T09:36:47.333Z,1.15
2022-11-23T09:39:17.318Z,1.73
2022-11-23T09:42:19.750Z,1.60
2022-11-23T09:45:03.338Z,1.40
2022-11-23T09:47:54.812Z,1.70
2022-11-23T09:50:30.330Z,1.73
2022-11-23T09:53:02.918Z,2.05
2022-11-23T09:55:38.273Z,1.52
2022-11-23T09:58:08.318Z,1.17
2022-11-23T10:00:39.134Z,2.42
2022-11-23T10:03:14.442Z,1.25
2022-11-23T10:05:44.737Z,1.88
2022-11-23T10:08:22.537Z,1.60
2022-11-23T10:10:58.919Z,1.92
2022-11-23T10:13:37.135Z,1.63
2022-11-23T10:16:30.222Z,1.25
2022-11-23T10:19:06.545Z,1.55
2022-11-23T10:21:42.403Z,1.80
2022-11-23T10:24:20.278Z,1.65
2022-11-23T10:26:50.466Z,1.55
2022-11-23T10:29:23.786Z,1.45
2022-11-23T10:31:57.049Z,1.52
2022-11-23T10:34:39.053Z,1.52
2022-11-23T10:37:12.990Z,1.00
2022-11-23T10:39:40.894Z,1.23
2022-11-23T10:42:20.233Z,1.10
2022-11-23T10:44:50.530Z,0.90
2022-11-23T10:47:37.894Z,1.67
2022-11-23T10:50:23.057Z,1.90
2022-11-23T10:52:53.166Z,1.48
2022-11-23T10:55:27.075Z,1.38
2022-11-23T10:57:55.614Z,1.02
2022-11-23T11:00:30.312Z,1.65
2022-11-23T11:02:59.872Z,1.38
2022-11-23T11:06:07.472Z,0.90
2022-11-23T11:08:30.614Z,1.33
2022-11-23T11:11:00.601Z,1.30
2022-11-23T11:13:31.821Z,1.83
2022-11-23T11:16:01.641Z,1.25
2022-11-23T11:18:32.136Z,1.23
2022-11-23T11:21:04.810Z,1.02
2022-11-23T11:23:34.572Z,0.90
2022-11-23T11:26:12.349Z,1.08
2022-11-23T11:28:43.393Z,1.20
2022-11-23T11:31:27.824Z,1.83
2022-11-23T11:34:04.607Z,2.05
2022-11-23T11:36:42.178Z,1.55
2022-11-23T11:39:19.090Z,1.10
2022-11-23T11:41:50.179Z,1.88
2022-11-23T11:44:22.129Z,1.30
2022-11-23T11:46:55.344Z,1.77
2022-11-23T11:49:27.360Z,1.80
2022-11-23T11:52:03.837Z,1.20
2022-11-23T11:54:38.947Z,1.33
2022-11-23T11:57:11.109Z,1.42
2022-11-23T11:59:43.451Z,2.10
2022-11-23T12:02:20.100Z,1.40
2022-11-23T12:04:57.712Z,1.42
2022-11-23T12:07:31.444Z,1.60
2022-11-23T12:10:05.736Z,2.42
2022-11-23T12:12:35.853Z,2.40
2022-11-23T12:15:20.303Z,2.50
2022-11-23T12:18:22.313Z,1.63
2022-11-23T12:20:58.213Z,1.35
2022-11-23T12:25:36.627Z,1.70
2022-11-23T12:28:22.749Z,1.83
2022-11-23T12:31:00.644Z,1.92
2022-11-23T12:33:55.946Z,1.60
2022-11-23T12:36:40.443Z,2.28
2022-11-23T12:39:24.964Z,1.50
2022-11-23T12:42:01.109Z,1.70
2022-11-23T12:45:01.686Z,1.52
2022-11-23T12:47:42.657Z,1.50
2022-11-23T12:50:21.064Z,1.60
2022-11-23T12:53:03.453Z,1.13
2022-11-23T12:55:44.477Z,1.23
2022-11-23T12:58:21.374Z,3.00
2022-11-23T13:00:54.051Z,1.50
2022-11-23T13:03:50.440Z,1.60
2022-11-23T13:07:12.698Z,1.90
2022-11-23T13:10:13.966Z,1.80
2022-11-23T13:12:57.678Z,2.20
2022-11-23T13:15:46.741Z,1.75
2022-11-23T13:18:24.522Z,1.15
2022-11-23T13:21:12.132Z,1.17
2022-11-23T13:23:41.017Z,1.02
2022-11-23T13:26:16.904Z,1.70
2022-11-23T13:31:26.489Z,1.10
2022-11-23T13:33:56.472Z,1.35
2022-11-23T13:40:03.857Z,1.05
2022-11-23T13:42:34.716Z,1.48
2022-11-23T13:45:24.381Z,0.90
2022-11-23T13:48:55.031Z,0.80
2022-11-23T13:51:10.257Z,0.90
2022-11-23T13:53:40.536Z,1.15
2022-11-23T13:56:24.259Z,0.90
2022-11-23T13:58:54.601Z,0.70
2022-11-23T14:01:59.602Z,0.98
2022-11-23T14:04:30.064Z,0.90
2022-11-23T14:07:03.103Z,0.70
2022-11-23T14:09:36.149Z,0.75
2022-11-23T14:12:09.514Z,0.70
2022-11-23T14:14:48.739Z,0.68
2022-11-23T14:18:07.530Z,0.95
2022-11-23T14:20:56.909Z,1.92
2022-11-23T14:23:45.259Z,0.70
2022-11-23T14:26:22.993Z,1.63
2022-11-23T14:29:05.648Z,0.73
2022-11-23T14:31:44.405Z,0.40
2022-11-23T14:34:21.501Z,0.63
2022-11-23T14:37:01.854Z,0.73
2022-11-23T14:39:47.744Z,1.00
2022-11-23T14:42:19.160Z,0.82
2022-11-23T14:44:48.243Z,0.82
2022-11-23T14:47:25.538Z,1.10
2022-11-23T14:49:53.538Z,2.47
2022-11-23T14:52:24.457Z,1.90
2022-11-23T14:54:54.570Z,2.00
2022-11-23T14:57:24.686Z,2.00
2022-11-23T14:59:56.889Z,2.42
2022-11-23T15:02:30.204Z,3.38
2022-11-23T15:05:07.146Z,3.03
2022-11-23T15:07:45.801Z,4.60
2022-11-23T15:10:31.848Z,4.43
2022-11-23T15:12:59.636Z,2.60
2022-11-23T15:15:30.810Z,1.08
2022-11-23T15:17:59.824Z,3.90
2022-11-23T15:20:32.380Z,2.60
2022-11-23T15:23:02.615Z,1.58
2022-11-23T15:25:30.890Z,2.38
2022-11-23T15:27:58.915Z,1.80
2022-11-23T15:30:29.134Z,2.45
2022-11-23T15:32:58.363Z,1.42
2022-11-23T15:35:31.431Z,1.60
2022-11-23T15:38:00.673Z,1.77
2022-11-23T15:40:33.134Z,1.40
2022-11-23T15:43:01.086Z,1.50
2022-11-23T15:45:40.225Z,1.60
2022-11-23T15:48:12.951Z,1.60
2022-11-23T15:50:49.027Z,1.70
2022-11-23T15:55:46.128Z,2.28
2022-11-23T15:58:18.596Z,1.70
2022-11-23T16:00:51.636Z,1.20
2022-11-23T16:03:31.512Z,1.70
2022-11-23T16:06:20.309Z,1.38
2022-11-23T16:08:48.070Z,1.20
2022-11-23T16:11:29.939Z,1.42
2022-11-23T16:14:15.353Z,1.30
2022-11-23T16:16:46.355Z,1.40
2022-11-23T16:19:30.700Z,1.33
2022-11-23T16:22:03.187Z,1.85
2022-11-23T16:24:33.833Z,1.65
2022-11-23T16:27:12.434Z,2.67
2022-11-23T16:29:40.951Z,1.85
2022-11-23T16:32:27.553Z,1.95
2022-11-23T16:37:23.473Z,1.42
2022-11-23T16:39:51.293Z,1.67
2022-11-23T16:42:20.389Z,1.10
2022-11-23T16:44:48.256Z,1.90
2022-11-23T16:47:24.967Z,1.58
2022-11-23T16:49:56.262Z,2.20
2022-11-23T16:52:24.747Z,1.85
2022-11-23T16:54:53.409Z,1.30
2022-11-23T16:57:34.303Z,1.73
2022-11-23T17:00:05.624Z,1.88
2022-11-23T17:02:33.544Z,1.80
2022-11-23T17:05:01.396Z,2.50
2022-11-23T17:07:29.402Z,3.05
2022-11-23T17:09:58.997Z,2.95
2022-11-23T17:12:26.910Z,2.70
2022-11-23T17:14:56.195Z,3.88
2022-11-23T17:17:24.469Z,3.88
2022-11-23T17:19:52.820Z,2.75
2022-11-23T17:22:21.614Z,2.22
2022-11-23T17:24:52.475Z,3.13
2022-11-23T17:27:24.164Z,3.20
2022-11-23T17:29:58.948Z,2.13
2022-11-23T17:32:27.447Z,2.53
2022-11-23T17:34:55.465Z,1.95
2022-11-23T17:37:25.105Z,3.47
2022-11-23T17:39:53.382Z,2.65
2022-11-23T17:42:21.587Z,2.47
2022-11-23T17:44:49.543Z,2.63
2022-11-23T17:47:23.673Z,2.67
2022-11-23T17:49:51.788Z,2.53
2022-11-23T17:52:19.886Z,2.00
2022-11-23T17:54:47.936Z,3.08
2022-11-23T17:57:16.918Z,3.10
2022-11-23T17:59:45.265Z,4.78
2022-11-23T18:02:13.237Z,3.67
2022-11-23T18:04:42.367Z,3.67
2022-11-23T18:07:13.812Z,3.38
2022-11-23T18:09:42.243Z,2.70
2022-11-23T18:12:10.968Z,3.65
2022-11-23T18:14:39.029Z,4.07
2022-11-23T18:17:06.938Z,2.85
2022-11-23T18:19:34.900Z,3.70
2022-11-23T18:22:04.307Z,4.00
2022-11-23T18:24:32.245Z,3.65
2022-11-23T18:27:00.558Z,3.22
2022-11-23T18:29:28.477Z,3.47
2022-11-23T18:31:56.265Z,3.20
2022-11-23T18:34:24.238Z,2.88
2022-11-23T18:36:52.069Z,2.42
2022-11-23T18:39:21.447Z,2.58
2022-11-23T18:41:49.509Z,2.33
2022-11-23T18:44:17.880Z,2.40
2022-11-23T18:46:46.007Z,2.35
2022-11-23T18:49:14.095Z,1.77
2022-11-23T18:51:42.226Z,2.65
2022-11-23T18:54:10.435Z,2.88
2022-11-23T18:56:39.827Z,2.20
2022-11-23T18:59:12.746Z,2.13
2022-11-23T19:01:47.457Z,2.20
2022-11-23T19:04:15.650Z,2.22
2022-11-23T19:06:43.792Z,2.90
2022-11-23T19:09:14.325Z,2.17
2022-11-23T19:11:43.729Z,3.42
2022-11-23T19:14:11.999Z,3.13
2022-11-23T19:16:40.340Z,3.10
2022-11-23T19:19:09.064Z,3.17
2022-11-23T19:21:37.811Z,2.53
2022-11-23T19:24:07.425Z,2.80
2022-11-23T19:26:35.445Z,3.10
2022-11-23T19:29:05.065Z,3.35
2022-11-23T19:31:33.634Z,3.08
2022-11-23T19:34:02.813Z,2.70
2022-11-23T19:36:33.105Z,3.00
2022-11-23T19:39:01.294Z,4.68
2022-11-23T19:41:30.892Z,4.68
2022-11-23T19:44:00.633Z,4.78
2022-11-23T19:46:30.795Z,4.47
2022-11-23T19:48:59.448Z,4.78
2022-11-23T19:51:28.622Z,3.35
2022-11-23T19:53:57.936Z,5.10
2022-11-23T19:56:28.728Z,5.93
2022-11-23T19:58:57.917Z,4.13
2022-11-23T20:01:27.859Z,4.63
2022-11-23T20:03:58.156Z,4.38
2022-11-23T20:06:28.255Z,5.47
2022-11-23T20:08:57.354Z,4.03
2022-11-23T20:11:27.263Z,4.35
2022-11-23T20:13:55.877Z,4.80
2022-11-23T20:16:25.621Z,5.32
2022-11-23T20:18:59.031Z,4.95
2022-11-23T20:21:28.232Z,4.55
2022-11-23T20:24:02.790Z,4.07
2022-11-23T20:26:32.977Z,4.75
2022-11-23T20:29:01.070Z,4.72
2022-11-23T20:31:30.962Z,7.13
2022-11-23T20:34:01.018Z,6.22
2022-11-23T20:36:30.495Z,4.57
2022-11-23T20:38:59.287Z,4.72
2022-11-23T20:41:29.544Z,6.18
2022-11-23T20:43:59.268Z,5.65
2022-11-23T20:47:00.153Z,4.35
2022-11-23T20:49:18.168Z,5.07
2022-11-23T20:51:46.052Z,7.78
2022-11-23T20:54:14.121Z,6.10
2022-11-23T20:56:42.068Z,5.10
2022-11-23T20:59:12.486Z,5.13
2022-11-23T21:01:40.628Z,5.45
2022-11-23T21:04:09.292Z,5.20
2022-11-23T21:06:40.079Z,5.15
2022-11-23T21:09:08.978Z,5.35
2022-11-23T21:11:54.929Z,6.10
2022-11-23T21:14:27.119Z,6.13
2022-11-23T21:16:57.072Z,5.85
2022-11-23T21:19:26.426Z,5.80
2022-11-23T21:21:56.719Z,5.57
2022-11-23T21:24:25.200Z,5.53
2022-11-23T21:26:53.055Z,5.47
2022-11-23T21:29:21.195Z,5.28
2022-11-23T21:31:50.287Z,5.38
2022-11-23T21:34:20.364Z,5.40
2022-11-23T21:36:48.530Z,6.70
2022-11-23T21:39:18.434Z,5.55
2022-11-23T21:41:47.506Z,5.90
2022-11-23T21:44:15.565Z,5.28
2022-11-23T21:46:43.442Z,5.55
2022-11-23T21:49:11.857Z,5.53
2022-11-23T21:51:42.486Z,5.85
2022-11-23T21:54:14.106Z,6.10
2022-11-23T21:56:43.632Z,5.93
2022-11-23T21:59:11.603Z,6.53
2022-11-23T22:01:40.176Z,6.68
2022-11-23T22:04:10.502Z,6.03
2022-11-23T22:06:39.533Z,5.20
2022-11-23T22:09:09.317Z,5.57
2022-11-23T22:11:41.101Z,6.28
2022-11-23T22:14:12.620Z,5.82
2022-11-23T22:16:41.916Z,6.22
2022-11-23T22:19:11.834Z,5.13
2022-11-23T22:21:41.372Z,4.50
2022-11-23T22:24:12.873Z,4.60
2022-11-23T22:26:40.759Z,5.20
2022-11-23T22:29:10.517Z,4.78
2022-11-23T22:31:39.314Z,4.53
2022-11-23T22:34:09.539Z,4.35
2022-11-23T22:36:37.417Z,5.13
2022-11-23T22:39:07.321Z,4.97
2022-11-23T22:41:37.065Z,5.65
2022-11-23T22:44:06.763Z,6.63
2022-11-23T22:46:36.474Z,5.88
2022-11-23T22:49:04.651Z,4.18
2022-11-23T22:51:32.963Z,4.28
2022-11-23T22:54:01.841Z,4.95
2022-11-23T22:56:31.423Z,4.05
2022-11-23T22:59:00.062Z,4.65
2022-11-23T23:01:29.349Z,3.45
2022-11-23T23:04:00.361Z,3.13
2022-11-23T23:06:30.272Z,4.00
2022-11-23T23:08:59.993Z,4.47
2022-11-23T23:11:31.289Z,3.92
2022-11-23T23:13:59.455Z,3.60
2022-11-23T23:16:27.500Z,3.92
2022-11-23T23:18:56.610Z,4.13
2022-11-23T23:21:27.231Z,3.20
2022-11-23T23:23:57.199Z,3.50
2022-11-23T23:26:27.034Z,3.25
2022-11-23T23:28:56.332Z,3.10
2022-11-23T23:31:24.568Z,4.13
2022-11-23T23:33:53.415Z,3.38
2022-11-23T23:36:22.600Z,2.92
2022-11-23T23:38:52.513Z,3.33
2022-11-23T23:41:20.815Z,3.05
2022-11-23T23:43:48.929Z,3.55
2022-11-23T23:46:17.443Z,2.75
2022-11-23T23:48:45.693Z,3.10
2022-11-23T23:51:15.116Z,2.78
2022-11-23T23:53:43.677Z,2.20
2022-11-23T23:56:16.465Z,3.83
2022-11-23T23:58:44.486Z,2.60
